createdAt,value
2022-09-12T00:01:25.721Z,98044.63
2022-09-12T00:03:56.349Z,98053.59
2022-09-12T00:06:27.525Z,98051.72
2022-09-12T00:08:57.272Z,98051.53
2022-09-12T00:11:26.233Z,98057.06
2022-09-12T00:13:57.188Z,98049.59
2022-09-12T00:16:27.341Z,98054.22
2022-09-12T00:18:56.994Z,98051.03
2022-09-12T00:21:25.370Z,98048.69
2022-09-12T00:23:53.461Z,98047.88
2022-09-12T00:26:22.491Z,98049.19
2022-09-12T00:28:50.895Z,98045.44
2022-09-12T00:31:20.870Z,98057.28
2022-09-12T00:33:49.302Z,98052.84
2022-09-12T00:36:21.259Z,98055.34
2022-09-12T00:38:50.670Z,98052.06
2022-09-12T00:41:21.858Z,98057.28
2022-09-12T00:43:51.924Z,98055.53
2022-09-12T00:46:35.353Z,98055.50
2022-09-12T00:49:07.138Z,98056.06
2022-09-12T00:51:38.140Z,98049.59
2022-09-12T00:54:09.293Z,98058.94
2022-09-12T00:56:37.564Z,98052.72
2022-09-12T00:59:08.519Z,98051.53
2022-09-12T01:01:37.201Z,98058.81
2022-09-12T01:04:05.739Z,98053.34
2022-09-12T01:06:37.821Z,98051.91
2022-09-12T01:09:06.581Z,98057.53
2022-09-12T01:11:37.550Z,98058.59
2022-09-12T01:14:05.828Z,98059.44
2022-09-12T01:16:36.294Z,98058.81
2022-09-12T01:19:15.192Z,98050.88
2022-09-12T01:21:51.132Z,98053.72
2022-09-12T01:24:35.389Z,98059.81
2022-09-12T01:27:19.676Z,98057.44
2022-09-12T01:30:17.964Z,98052.03
2022-09-12T01:33:05.560Z,98053.34
2022-09-12T01:35:39.507Z,98053.34
2022-09-12T01:38:12.461Z,98049.31
2022-09-12T01:40:44.982Z,98058.59
2022-09-12T01:43:20.714Z,98048.97
2022-09-12T01:45:55.496Z,98052.72
2022-09-12T01:48:26.339Z,98056.47
2022-09-12T01:51:00.449Z,98057.06
2022-09-12T01:53:31.355Z,98057.81
2022-09-12T01:56:03.595Z,98065.56
2022-09-12T01:58:37.638Z,98057.28
2022-09-12T02:01:10.665Z,98059.56
2022-09-12T02:03:44.517Z,98057.81
2022-09-12T02:06:18.698Z,98056.66
2022-09-12T02:08:49.625Z,98058.50
2022-09-12T02:11:17.903Z,98054.41
2022-09-12T02:13:49.339Z,98061.06
2022-09-12T02:16:21.217Z,98064.91
2022-09-12T02:18:52.957Z,98066.19
2022-09-12T02:21:23.604Z,98066.38
2022-09-12T02:23:55.481Z,98061.03
2022-09-12T02:26:26.772Z,98066.16
2022-09-12T02:28:55.082Z,98061.75
2022-09-12T02:31:26.707Z,98057.31
2022-09-12T02:34:05.123Z,98057.34
2022-09-12T02:36:37.054Z,98061.91
2022-09-12T02:39:05.726Z,98054.56
2022-09-12T02:41:33.924Z,98056.31
2022-09-12T02:44:02.258Z,98058.94
2022-09-12T02:46:36.792Z,98057.66
2022-09-12T02:49:04.958Z,98064.34
2022-09-12T02:51:33.635Z,98063.16
2022-09-12T02:54:03.276Z,98064.81
2022-09-12T02:56:32.150Z,98065.84
2022-09-12T02:59:04.584Z,98062.13
2022-09-12T03:01:50.824Z,98057.78
2022-09-12T03:04:32.913Z,98067.66
2022-09-12T03:07:09.243Z,98073.88
2022-09-12T03:09:41.988Z,98075.41
2022-09-12T03:12:15.389Z,98076.44
2022-09-12T03:15:01.626Z,98068.69
2022-09-12T03:17:41.599Z,98075.38
2022-09-12T03:20:12.416Z,98071.53
2022-09-12T03:22:51.040Z,98072.41
2022-09-12T03:25:22.846Z,98077.06
2022-09-12T03:27:57.039Z,98065.81
2022-09-12T03:30:26.167Z,98070.41
2022-09-12T03:32:56.366Z,98070.31
2022-09-12T03:35:25.675Z,98066.69
2022-09-12T03:37:54.219Z,98076.72
2022-09-12T03:40:22.787Z,98070.00
2022-09-12T03:42:50.840Z,98074.78
2022-09-12T03:45:19.314Z,98083.72
2022-09-12T03:47:47.639Z,98082.13
2022-09-12T03:50:17.272Z,98077.44
2022-09-12T03:52:45.694Z,98085.22
2022-09-12T03:55:13.845Z,98092.38
2022-09-12T03:57:41.871Z,98091.72
2022-09-12T04:00:12.877Z,98094.28
2022-09-12T04:02:42.558Z,98088.69
2022-09-12T04:05:10.742Z,98102.03
2022-09-12T04:07:40.535Z,98094.13
2022-09-12T04:10:09.765Z,98094.53
2022-09-12T04:12:39.598Z,98100.13
2022-09-12T04:15:09.339Z,98091.63
2022-09-12T04:17:37.524Z,98100.31
2022-09-12T04:20:06.922Z,98103.19
2022-09-12T04:22:37.649Z,98104.72
2022-09-12T04:25:09.623Z,98098.03
2022-09-12T04:27:38.302Z,98101.53
2022-09-12T04:30:07.615Z,98112.69
2022-09-12T04:32:36.136Z,98105.22
2022-09-12T04:35:05.202Z,98105.81
2022-09-12T04:37:33.405Z,98108.25
2022-09-12T04:40:01.799Z,98108.19
2022-09-12T04:42:31.862Z,98105.34
2022-09-12T04:44:59.951Z,98112.31
2022-09-12T04:47:28.049Z,98107.16
2022-09-12T04:49:56.653Z,98113.31
2022-09-12T04:52:24.747Z,98113.19
2022-09-12T04:54:53.367Z,98110.06
2022-09-12T04:57:22.188Z,98115.88
2022-09-12T04:59:51.749Z,98117.56
2022-09-12T05:02:20.020Z,98125.13
2022-09-12T05:04:48.430Z,98122.03
2022-09-12T05:07:16.634Z,98127.81
2022-09-12T05:09:45.019Z,98127.16
2022-09-12T05:12:14.798Z,98128.31
2022-09-12T05:14:42.938Z,98131.81
2022-09-12T05:17:12.549Z,98133.41
2022-09-12T05:19:40.857Z,98142.09
2022-09-12T05:22:09.831Z,98139.38
2022-09-12T05:24:39.608Z,98143.91
2022-09-12T05:27:08.358Z,98144.31
2022-09-12T05:29:36.694Z,98149.38
2022-09-12T05:32:05.134Z,98156.41
2022-09-12T05:34:34.900Z,98149.84
2022-09-12T05:37:03.025Z,98152.59
2022-09-12T05:39:31.902Z,98152.38
2022-09-12T05:42:00.271Z,98162.19
2022-09-12T05:44:28.688Z,98158.84
2022-09-12T05:46:57.616Z,98161.16
2022-09-12T05:49:26.208Z,98161.09
2022-09-12T05:51:55.705Z,98170.97
2022-09-12T05:54:24.895Z,98155.22
2022-09-12T05:56:54.967Z,98155.47
2022-09-12T05:59:24.252Z,98159.97
2022-09-12T06:01:52.480Z,98156.97
2022-09-12T06:04:20.894Z,98160.31
2022-09-12T06:06:49.031Z,98159.38
2022-09-12T06:09:19.119Z,98162.25
2022-09-12T06:11:47.934Z,98163.41
2022-09-12T06:14:19.771Z,98158.09
2022-09-12T06:16:48.765Z,98158.41
2022-09-12T06:19:19.048Z,98166.78
2022-09-12T06:21:48.477Z,98156.78
2022-09-12T06:24:18.512Z,98165.88
2022-09-12T06:26:52.960Z,98165.41
2022-09-12T06:29:22.296Z,98165.88
2022-09-12T06:31:50.852Z,98170.00
2022-09-12T06:34:20.353Z,98162.19
2022-09-12T06:36:50.315Z,98167.84
2022-09-12T06:39:22.023Z,98170.50
2022-09-12T06:41:51.140Z,98170.97
2022-09-12T06:44:22.559Z,98167.41
2022-09-12T06:46:51.335Z,98163.41
2022-09-12T06:49:19.573Z,98175.34
2022-09-12T06:51:48.171Z,98177.53
2022-09-12T06:54:18.005Z,98160.41
2022-09-12T06:56:47.606Z,98170.59
2022-09-12T06:59:16.174Z,98170.03
2022-09-12T07:01:44.408Z,98172.72
2022-09-12T07:04:12.781Z,98170.38
2022-09-12T07:06:42.366Z,98173.66
2022-09-12T07:09:13.779Z,98161.63
2022-09-12T07:11:42.473Z,98169.25
2022-09-12T07:14:14.207Z,98169.50
2022-09-12T07:16:42.969Z,98167.72
2022-09-12T07:19:12.175Z,98167.44
2022-09-12T07:21:41.045Z,98168.91
2022-09-12T07:24:10.855Z,98170.66
2022-09-12T07:26:40.402Z,98181.19
2022-09-12T07:29:34.875Z,98166.38
2022-09-12T07:32:00.160Z,98171.69
2022-09-12T07:34:28.281Z,98186.00
2022-09-12T07:36:56.557Z,98187.38
2022-09-12T07:39:25.038Z,98172.31
2022-09-12T07:41:53.610Z,98180.53
2022-09-12T07:44:22.963Z,98183.72
2022-09-12T07:46:52.520Z,98186.81
2022-09-12T07:49:22.138Z,98182.66
2022-09-12T07:51:50.255Z,98183.66
2022-09-12T07:54:18.975Z,98186.84
2022-09-12T07:56:47.282Z,98185.78
2022-09-12T07:59:29.979Z,98179.47
2022-09-12T08:02:04.104Z,98187.13
2022-09-12T08:04:36.558Z,98188.31
2022-09-12T08:07:06.788Z,98188.44
2022-09-12T08:09:34.922Z,98188.22
2022-09-12T08:12:03.903Z,98181.22
2022-09-12T08:14:32.678Z,98189.09
2022-09-12T08:17:01.061Z,98191.59
2022-09-12T08:19:29.215Z,98196.06
2022-09-12T08:21:59.204Z,98194.19
2022-09-12T08:24:27.918Z,98200.53
2022-09-12T08:26:56.120Z,98199.25
2022-09-12T08:29:24.501Z,98194.72
2022-09-12T08:31:57.024Z,98187.91
2022-09-12T08:34:26.250Z,98187.00
2022-09-12T08:36:55.427Z,98196.69
2022-09-12T08:39:25.760Z,98191.66
2022-09-12T08:42:01.877Z,98192.38
2022-09-12T08:44:43.978Z,98182.00
2022-09-12T08:47:19.360Z,98182.47
2022-09-12T08:49:55.130Z,98188.25
2022-09-12T08:52:29.048Z,98193.94
2022-09-12T08:54:58.847Z,98182.75
2022-09-12T08:57:27.635Z,98185.25
2022-09-12T08:59:56.439Z,98173.81
2022-09-12T09:02:47.421Z,98178.66
2022-09-12T09:05:21.293Z,98178.19
2022-09-12T09:08:07.683Z,98175.69
2022-09-12T09:10:42.415Z,98178.31
2022-09-12T09:13:39.786Z,98176.72
2022-09-12T09:16:17.020Z,98173.72
2022-09-12T09:18:46.329Z,98167.81
2022-09-12T09:21:22.548Z,98171.94
2022-09-12T09:23:54.303Z,98170.56
2022-09-12T09:26:28.110Z,98174.03
2022-09-12T09:28:58.947Z,98171.06
2022-09-12T09:31:30.481Z,98167.03
2022-09-12T09:33:58.944Z,98172.38
2022-09-12T09:36:36.188Z,98166.06
2022-09-12T09:39:07.159Z,98167.84
2022-09-12T09:41:46.892Z,98166.72
2022-09-12T09:44:15.263Z,98172.72
2022-09-12T09:46:43.655Z,98174.00
2022-09-12T09:49:13.783Z,98179.94
2022-09-12T09:51:43.485Z,98171.16
2022-09-12T09:54:19.553Z,98177.88
2022-09-12T09:56:49.305Z,98173.94
2022-09-12T09:59:19.584Z,98181.88
2022-09-12T10:01:50.542Z,98172.13
2022-09-12T10:04:21.223Z,98174.31
2022-09-12T10:06:52.629Z,98172.31
2022-09-12T10:09:23.943Z,98174.00
2022-09-12T10:11:54.581Z,98172.06
2022-09-12T10:14:43.953Z,98171.47
2022-09-12T10:17:33.236Z,98178.84
2022-09-12T10:20:20.392Z,98175.09
2022-09-12T10:22:50.001Z,98161.75
2022-09-12T10:25:20.208Z,98178.06
2022-09-12T10:27:55.794Z,98175.53
2022-09-12T10:30:26.217Z,98173.69
2022-09-12T10:32:54.509Z,98165.69
2022-09-12T10:35:24.626Z,98159.97
2022-09-12T10:37:55.945Z,98174.63
2022-09-12T10:40:26.652Z,98167.53
2022-09-12T10:42:57.706Z,98170.38
2022-09-12T10:45:29.265Z,98160.84
2022-09-12T10:48:02.066Z,98148.81
2022-09-12T10:50:37.647Z,98151.13
2022-09-12T10:53:16.115Z,98147.19
2022-09-12T10:55:56.722Z,98158.00
2022-09-12T10:58:37.862Z,98159.69
2022-09-12T11:01:13.318Z,98163.34
2022-09-12T11:03:55.828Z,98164.53
2022-09-12T11:06:28.835Z,98166.66
2022-09-12T11:09:06.291Z,98165.56
2022-09-12T11:11:49.891Z,98164.72
2022-09-12T11:14:29.600Z,98156.00
2022-09-12T11:17:04.415Z,98156.28
2022-09-12T11:19:54.946Z,98162.03
2022-09-12T11:22:32.735Z,98144.47
2022-09-12T11:25:21.288Z,98154.78
2022-09-12T11:27:58.226Z,98162.59
2022-09-12T11:30:28.735Z,98149.84
2022-09-12T11:33:31.668Z,98156.78
2022-09-12T11:36:02.989Z,98149.66
2022-09-12T11:38:51.361Z,98148.66
2022-09-12T11:41:24.269Z,98151.81
2022-09-12T11:43:57.937Z,98133.66
2022-09-12T11:46:32.529Z,98141.84
2022-09-12T11:49:05.536Z,98141.28
2022-09-12T11:51:37.220Z,98132.69
2022-09-12T11:54:12.248Z,98147.94
2022-09-12T11:56:44.511Z,98149.06
2022-09-12T11:59:18.107Z,98154.25
2022-09-12T12:01:49.205Z,98158.50
2022-09-12T12:04:22.134Z,98157.66
2022-09-12T12:06:54.074Z,98157.38
2022-09-12T12:09:22.379Z,98149.13
2022-09-12T12:11:56.145Z,98150.34
2022-09-12T12:14:27.342Z,98152.59
2022-09-12T12:16:56.840Z,98139.09
2022-09-12T12:19:34.186Z,98154.78
2022-09-12T12:22:17.697Z,98150.72
2022-09-12T12:25:16.232Z,98151.19
2022-09-12T12:27:48.314Z,98145.22
2022-09-12T12:30:52.873Z,98151.72
2022-09-12T12:33:57.557Z,98150.69
2022-09-12T12:36:41.733Z,98144.25
2022-09-12T12:39:47.019Z,98147.69
2022-09-12T12:43:04.670Z,98159.44
2022-09-12T12:46:02.931Z,98143.88
2022-09-12T12:48:37.365Z,98159.66
2022-09-12T12:51:28.720Z,98161.91
2022-09-12T12:53:58.117Z,98151.03
2022-09-12T12:56:35.455Z,98154.19
2022-09-12T12:59:06.495Z,98147.38
2022-09-12T13:01:41.221Z,98147.91
2022-09-12T13:04:15.463Z,98149.50
2022-09-12T13:06:45.617Z,98149.19
2022-09-12T13:09:24.776Z,98143.13
2022-09-12T13:11:59.578Z,98148.34
2022-09-12T13:14:48.847Z,98139.56
2022-09-12T13:17:21.686Z,98147.53
2022-09-12T13:20:00.784Z,98145.16
2022-09-12T13:22:42.656Z,98143.91
2022-09-12T13:25:23.924Z,98136.72
2022-09-12T13:28:00.446Z,98136.25
2022-09-12T13:30:29.740Z,98133.13
2022-09-12T13:32:59.306Z,98139.13
2022-09-12T13:35:33.563Z,98134.69
2022-09-12T13:38:06.472Z,98144.38
2022-09-12T13:40:42.465Z,98131.50
2022-09-12T13:43:16.089Z,98137.53
2022-09-12T13:45:46.624Z,98136.72
2022-09-12T13:48:19.192Z,98136.31
2022-09-12T13:50:52.313Z,98126.28
2022-09-12T13:53:23.351Z,98125.09
2022-09-12T13:55:55.011Z,98125.06
2022-09-12T13:58:25.312Z,98139.53
2022-09-12T14:01:06.312Z,98128.69
2022-09-12T14:03:58.065Z,98129.41
2022-09-12T14:06:27.837Z,98128.06
2022-09-12T14:08:58.561Z,98128.88
2022-09-12T14:11:29.777Z,98118.88
2022-09-12T14:13:58.599Z,98129.50
2022-09-12T14:16:29.310Z,98124.81
2022-09-12T14:18:57.633Z,98120.56
2022-09-12T14:21:34.337Z,98114.63
2022-09-12T14:24:04.904Z,98123.44
2022-09-12T14:26:37.659Z,98121.41
2022-09-12T14:29:07.252Z,98122.19
2022-09-12T14:31:36.925Z,98121.25
2022-09-12T14:34:13.614Z,98121.28
2022-09-12T14:36:44.884Z,98123.47
2022-09-12T14:39:24.253Z,98115.63
2022-09-12T14:42:03.568Z,98116.16
2022-09-12T14:44:32.244Z,98126.53
2022-09-12T14:47:12.086Z,98116.69
2022-09-12T14:49:40.380Z,98120.31
2022-09-12T14:52:17.962Z,98123.72
2022-09-12T14:54:46.224Z,98108.19
2022-09-12T14:57:39.082Z,98114.59
2022-09-12T15:00:20.983Z,98115.91
2022-09-12T15:02:50.643Z,98122.19
2022-09-12T15:05:22.174Z,98122.28
2022-09-12T15:07:56.495Z,98112.41
2022-09-12T15:10:27.941Z,98113.50
2022-09-12T15:13:14.268Z,98117.16
2022-09-12T15:15:44.129Z,98119.13
2022-09-12T15:18:13.844Z,98117.66
2022-09-12T15:20:43.869Z,98115.53
2022-09-12T15:23:17.472Z,98134.13
2022-09-12T15:25:46.248Z,98128.56
2022-09-12T15:28:19.293Z,98132.50
2022-09-12T15:30:49.631Z,98129.66
2022-09-12T15:33:18.853Z,98131.19
2022-09-12T15:35:47.302Z,98134.16
2022-09-12T15:38:15.717Z,98135.84
2022-09-12T15:40:43.962Z,98130.41
2022-09-12T15:43:13.903Z,98127.66
2022-09-12T15:45:45.293Z,98136.44
2022-09-12T15:48:14.030Z,98135.78
2022-09-12T15:50:42.406Z,98135.19
2022-09-12T15:53:15.089Z,98136.50
2022-09-12T15:55:43.835Z,98144.69
2022-09-12T15:58:12.968Z,98137.63
2022-09-12T16:00:41.201Z,98131.91
2022-09-12T16:03:20.739Z,98133.38
2022-09-12T16:05:49.098Z,98141.69
2022-09-12T16:08:17.185Z,98137.44
2022-09-12T16:10:54.262Z,98130.47
2022-09-12T16:13:22.598Z,98126.66
2022-09-12T16:15:50.832Z,98133.63
2022-09-12T16:18:20.770Z,98134.41
2022-09-12T16:20:53.204Z,98133.47
2022-09-12T16:23:21.495Z,98132.06
2022-09-12T16:25:58.050Z,98140.88
2022-09-12T16:28:26.429Z,98132.63
2022-09-12T16:30:57.907Z,98137.41
2022-09-12T16:33:28.239Z,98139.88
2022-09-12T16:36:03.487Z,98138.34
2022-09-12T16:38:31.684Z,98132.44
2022-09-12T16:41:03.703Z,98139.13
2022-09-12T16:43:32.469Z,98137.88
2022-09-12T16:46:05.011Z,98141.84
2022-09-12T16:48:34.855Z,98137.94
2022-09-12T16:51:05.179Z,98138.34
2022-09-12T16:53:34.289Z,98143.06
2022-09-12T16:56:02.560Z,98145.50
2022-09-12T16:58:33.530Z,98138.00
2022-09-12T17:01:03.644Z,98144.03
2022-09-12T17:03:32.331Z,98137.41
2022-09-12T17:06:03.309Z,98135.75
2022-09-12T17:08:31.643Z,98143.00
2022-09-12T17:11:03.124Z,98140.22
2022-09-12T17:13:53.055Z,98134.72
2022-09-12T17:16:20.698Z,98141.75
2022-09-12T17:18:49.384Z,98136.47
2022-09-12T17:21:19.416Z,98148.28
2022-09-12T17:23:48.045Z,98147.25
2022-09-12T17:26:16.592Z,98146.31
2022-09-12T17:28:45.425Z,98149.75
2022-09-12T17:31:16.203Z,98147.97
2022-09-12T17:33:44.921Z,98155.56
2022-09-12T17:36:15.737Z,98163.03
2022-09-12T17:38:48.415Z,98159.88
2022-09-12T17:41:18.689Z,98161.75
2022-09-12T17:43:49.407Z,98161.88
2022-09-12T17:46:18.409Z,98164.19
2022-09-12T17:48:46.945Z,98164.56
2022-09-12T17:51:16.838Z,98175.88
2022-09-12T17:53:46.773Z,98175.81
2022-09-12T17:56:15.839Z,98180.72
2022-09-12T17:58:44.250Z,98174.34
2022-09-12T18:01:32.514Z,98179.50
2022-09-12T18:04:02.503Z,98186.56
2022-09-12T18:06:32.126Z,98182.13
2022-09-12T18:09:02.659Z,98182.53
2022-09-12T18:11:31.137Z,98182.56
2022-09-12T18:13:59.642Z,98189.00
2022-09-12T18:16:28.615Z,98178.59
2022-09-12T18:18:57.309Z,98190.22
2022-09-12T18:21:25.477Z,98190.63
2022-09-12T18:23:53.634Z,98197.94
2022-09-12T18:26:24.370Z,98198.91
2022-09-12T18:28:53.099Z,98194.69
2022-09-12T18:31:24.097Z,98198.16
2022-09-12T18:33:52.546Z,98189.53
2022-09-12T18:36:22.016Z,98193.88
2022-09-12T18:38:50.606Z,98201.56
2022-09-12T18:41:22.178Z,98199.47
2022-09-12T18:43:55.342Z,98197.63
2022-09-12T18:46:23.910Z,98201.69
2022-09-12T18:48:52.381Z,98193.09
2022-09-12T18:51:22.318Z,98198.13
2022-09-12T18:53:52.542Z,98201.56
2022-09-12T18:56:21.298Z,98203.75
2022-09-12T18:58:53.993Z,98194.28
2022-09-12T19:01:24.576Z,98199.03
2022-09-12T19:03:53.787Z,98197.97
2022-09-12T19:06:24.216Z,98194.97
2022-09-12T19:08:54.195Z,98202.13
2022-09-12T19:11:23.431Z,98203.41
2022-09-12T19:13:54.427Z,98190.31
2022-09-12T19:16:24.569Z,98193.34
2022-09-12T19:18:52.954Z,98199.44
2022-09-12T19:21:24.712Z,98194.03
2022-09-12T19:23:54.966Z,98192.50
2022-09-12T19:26:23.387Z,98191.69
2022-09-12T19:28:53.484Z,98199.09
2022-09-12T19:31:23.598Z,98196.19
2022-09-12T19:33:52.251Z,98188.28
2022-09-12T19:39:11.939Z,98185.56
2022-09-12T19:41:40.187Z,98180.28
2022-09-12T19:44:09.876Z,98185.22
2022-09-12T19:46:38.369Z,98187.88
2022-09-12T19:49:06.529Z,98186.25
2022-09-12T19:51:34.754Z,98188.88
2022-09-12T19:54:03.187Z,98190.84
2022-09-12T19:56:31.412Z,98190.50
2022-09-12T19:58:59.824Z,98189.09
2022-09-12T20:01:29.915Z,98183.78
2022-09-12T20:03:58.889Z,98177.66
2022-09-12T20:06:27.718Z,98175.44
2022-09-12T20:08:56.486Z,98163.22
2022-09-12T20:11:25.674Z,98169.13
2022-09-12T20:13:54.257Z,98168.38
2022-09-12T20:16:24.563Z,98169.94
2022-09-12T20:18:58.812Z,98166.38
2022-09-12T20:21:32.132Z,98165.00
2022-09-12T20:24:02.415Z,98157.69
2022-09-12T20:26:31.226Z,98164.56
2022-09-12T20:28:59.400Z,98165.06
2022-09-12T20:31:27.648Z,98156.69
2022-09-12T20:33:57.229Z,98160.69
2022-09-12T20:36:25.396Z,98156.28
2022-09-12T20:38:56.895Z,98158.00
2022-09-12T20:41:26.014Z,98164.16
2022-09-12T20:43:54.936Z,98155.03
2022-09-12T20:46:23.390Z,98162.75
2022-09-12T20:48:52.183Z,98161.28
2022-09-12T20:51:22.326Z,98170.28
2022-09-12T20:53:53.930Z,98158.31
2022-09-12T20:56:22.582Z,98156.53
2022-09-12T20:58:50.961Z,98157.34
2022-09-12T21:01:19.070Z,98158.00
2022-09-12T21:03:47.917Z,98156.28
2022-09-12T21:06:18.059Z,98155.69
2022-09-12T21:08:48.510Z,98147.09
2022-09-12T21:11:17.721Z,98155.00
2022-09-12T21:13:46.057Z,98155.94
2022-09-12T21:16:15.642Z,98150.72
2022-09-12T21:18:44.173Z,98142.41
2022-09-12T21:21:14.383Z,98148.78
2022-09-12T21:23:43.021Z,98148.31
2022-09-12T21:26:13.025Z,98143.34
2022-09-12T21:28:41.138Z,98142.63
2022-09-12T21:31:09.912Z,98144.72
2022-09-12T21:33:38.363Z,98147.94
2022-09-12T21:36:07.457Z,98149.56
2022-09-12T21:38:35.866Z,98158.78
2022-09-12T21:41:06.547Z,98153.03
2022-09-12T21:43:36.492Z,98152.81
2022-09-12T21:46:05.863Z,98152.25
2022-09-12T21:48:34.598Z,98148.38
2022-09-12T21:51:03.632Z,98145.06
2022-09-12T21:53:32.254Z,98143.31
2022-09-12T21:56:04.877Z,98145.72
2022-09-12T21:58:33.123Z,98147.78
2022-09-12T22:01:03.220Z,98143.06
2022-09-12T22:03:31.594Z,98143.59
2022-09-12T22:06:00.367Z,98147.28
2022-09-12T22:08:29.372Z,98138.53
2022-09-12T22:11:00.640Z,98137.09
2022-09-12T22:13:32.434Z,98139.31
2022-09-12T22:16:03.525Z,98132.91
2022-09-12T22:18:33.755Z,98128.16
2022-09-12T22:21:03.546Z,98133.19
2022-09-12T22:23:49.432Z,98128.81
2022-09-12T22:26:18.165Z,98125.25
2022-09-12T22:28:47.563Z,98122.38
2022-09-12T22:31:18.009Z,98124.06
2022-09-12T22:33:46.405Z,98124.63
2022-09-12T22:36:15.552Z,98125.81
2022-09-12T22:38:43.956Z,98125.59
2022-09-12T22:41:13.297Z,98123.56
2022-09-12T22:43:41.974Z,98123.38
2022-09-12T22:46:12.405Z,98131.66
2022-09-12T22:48:42.904Z,98127.34
2022-09-12T22:51:12.310Z,98128.34
2022-09-12T22:53:40.876Z,98132.88
2022-09-12T22:56:10.276Z,98128.84
2022-09-12T22:58:38.552Z,98131.47
2022-09-12T23:01:07.317Z,98129.47
2022-09-12T23:03:37.081Z,98124.59
2022-09-12T23:06:07.622Z,98129.84
2022-09-12T23:08:36.583Z,98122.31
2022-09-12T23:11:06.089Z,98118.50
2022-09-12T23:13:34.520Z,98118.63
2022-09-12T23:16:04.723Z,98111.34
2022-09-12T23:18:35.398Z,98110.28
2022-09-12T23:21:05.230Z,98114.97
2022-09-12T23:23:35.638Z,98109.44
2022-09-12T23:26:08.411Z,98115.25
2022-09-12T23:28:37.164Z,98118.75
2022-09-12T23:31:05.345Z,98123.00
2022-09-12T23:33:33.831Z,98112.41
2022-09-12T23:36:03.749Z,98111.94
2022-09-12T23:38:32.558Z,98110.28
2022-09-12T23:41:03.531Z,98112.69
2022-09-12T23:43:32.299Z,98104.13
2022-09-12T23:46:00.640Z,98105.78
2022-09-12T23:48:29.275Z,98108.03
2022-09-12T23:50:58.104Z,98098.78
2022-09-12T23:53:26.967Z,98114.50
2022-09-12T23:55:55.348Z,98106.22
2022-09-12T23:58:25.648Z,98100.81
